全部
Beauregard Rgnl Airport (De Ridder, LA) DRI 天氣
|
De Ridder, LA (KDRI)
晴天
微風 |
|
25 °C |
There is no TAF data available at DRI or any nearby airports.
DRI近期METAR歷史資料
| Date | Time (CDT) | Flight Rules | Wind Dir. | Speed | Type | Height AGL (ft) | Visibility | Temp (°C) | Temp (°F) | Dew Point (°C) | Dew Point (°F) | Rel. Humid. | Pressure | Density Altitude | Remarks |
|---|---|---|---|---|---|---|---|---|---|---|---|---|---|---|---|
| 05-五月 | 19:15 | VFR | 180° | 8 kt | 10 miles | 25° | 77° | 23° | 73° | 89% | 29.78 in Hg | 1,541 ft | |||
| 05-五月 | 18:55 | VFR | 180° | 9 kt | 10 miles | 25° | 77° | 24° | 75° | 89% | 29.78 in Hg | 1,541 ft | |||
| 05-五月 | 18:35 | VFR | 180° | 9 kt | 10 miles | 26° | 78° | 24° | 75° | 88% | 29.78 in Hg | 1,661 ft | |||
| 05-五月 | 18:15 | VFR | 170° | 9 kt | 10 miles | 26° | 78° | 23° | 73° | 87% | 29.78 in Hg | 1,661 ft | |||
| 05-五月 | 17:55 | VFR | 180° | 10 kt | 10 miles | 26° | 78° | 23° | 73° | 86% | 29.79 in Hg | 1,651 ft | |||
| 05-五月 | 17:35 | VFR | 180° | 10 kt | 10 miles | 26° | 78° | 23° | 73° | 85% | 29.78 in Hg | 1,661 ft | |||
| 05-五月 | 17:15 | VFR | 180° | 8 kt | 10 miles | 26° | 78° | 23° | 73° | 84% | 29.78 in Hg | 1,661 ft | |||
| 05-五月 | 16:55 | VFR | 180° | 11 kt | 10 miles | 26° | 78° | 23° | 73° | 83% | 29.78 in Hg | 1,661 ft | |||
| 05-五月 | 16:35 | VFR | 190° | 12 kt | 10 miles | 26° | 78° | 23° | 73° | 84% | 29.79 in Hg | 1,651 ft | Wind gusting to 17 KT | ||
| 05-五月 | 16:15 | VFR | 180° | 9 kt | 10 miles | 26° | 78° | 23° | 73° | 85% | 29.80 in Hg | 1,641 ft | |||
| 05-五月 | 15:55 | VFR | 190° | 9 kt | 10 miles | 26° | 78° | 23° | 73° | 85% | 29.81 in Hg | 1,631 ft | |||
| 05-五月 | 15:35 | VFR | 190° | 10 kt | 10 miles | 26° | 78° | 23° | 73° | 85% | 29.81 in Hg | 1,631 ft | |||
| 05-五月 | 15:15 | VFR | 180° | 12 kt | 10 miles | 26° | 78° | 23° | 73° | 82% | 29.82 in Hg | 1,621 ft | |||
| 05-五月 | 14:55 | VFR | 200° | 9 kt | 10 miles | 26° | 78° | 23° | 73° | 84% | 29.82 in Hg | 1,621 ft | |||
| 05-五月 | 14:35 | VFR | 210° | 13 kt | 10 miles | 26° | 78° | 23° | 73° | 84% | 29.82 in Hg | 1,621 ft | |||
| 05-五月 | 14:15 | VFR | 190° | 10 kt | 10 miles | 26° | 78° | 23° | 73° | 85% | 29.83 in Hg | 1,611 ft | |||
| 05-五月 | 13:55 | VFR | 190° | 11 kt | 10 miles | 25° | 77° | 23° | 73° | 87% | 29.83 in Hg | 1,491 ft | |||
| 05-五月 | 13:35 | VFR | 200° | 9 kt | 10 miles | 25° | 77° | 23° | 73° | 87% | 29.83 in Hg | 1,491 ft | |||
| 05-五月 | 13:15 | VFR | 200° | 11 kt | 10 miles | 24° | 75° | 23° | 73° | 92% | 29.84 in Hg | 1,361 ft | |||
| 05-五月 | 12:55 | VFR | 200° | 10 kt | 10 miles | 25° | 77° | 22° | 71° | 83% | 29.84 in Hg | 1,481 ft | |||
| 05-五月 | 12:35 | VFR | 190° | 10 kt | 10 miles | 25° | 77° | 22° | 71° | 81% | 29.84 in Hg | 1,481 ft | |||
| 05-五月 | 12:15 | VFR | 190° | 12 kt | 10 miles | 26° | 78° | 22° | 71° | 80% | 29.84 in Hg | 1,601 ft | |||
| 05-五月 | 11:55 | VFR | 190° | 9 kt | 10 miles | 25° | 77° | 22° | 71° | 81% | 29.84 in Hg | 1,481 ft | |||
| 05-五月 | 11:35 | VFR | 200° | 10 kt | 10 miles | 25° | 77° | 22° | 71° | 82% | 29.84 in Hg | 1,481 ft |
登入
| 您的瀏覽器不支援. 升級您的瀏覽器 |
